Time;durP1;ratioP1;P1;durP2;ratioP2;P2;SDS_P1;SDS_P2;PMS_P1;PMS_P2;Temp;Humidity;BMP_temperature;BMP_pressure;BME280_temperature;BME280_humidity;BME280_pressure;Samples;Min_cycle;Max_cycle;Signal;HPM_P1;HPM_P2
2022/04/22 00:00:14;;;;;;;30.53;17.03;;;;;8.10;95233.00;;;;8294048;28;20316;-71
2022/04/22 00:04:17;;;;;;;33.03;18.43;;;;;8.10;95238.00;;;;8255324;28;20638;-70
2022/04/22 00:08:22;;;;;;;25.23;13.13;;;;;8.10;95226.00;;;;8279626;28;20777;-70
2022/04/22 00:12:25;;;;;;;32.90;18.50;;;;;8.10;95218.00;;;;8292805;28;20223;-70
2022/04/22 00:16:30;;;;;;;32.77;17.53;;;;;8.10;95205.00;;;;8304619;28;20824;-70
2022/04/22 00:20:34;;;;;;;29.70;14.67;;;;;8.10;95195.00;;;;8299964;28;20232;-70
2022/04/22 00:24:38;;;;;;;33.87;20.00;;;;;8.10;95197.00;;;;8287920;28;20580;-70
2022/04/22 00:28:42;;;;;;;30.73;17.60;;;;;8.00;95188.00;;;;8282710;28;20234;-71
2022/04/22 00:32:45;;;;;;;33.80;17.83;;;;;8.00;95188.00;;;;8293249;28;20235;-71
2022/04/22 00:36:48;;;;;;;34.17;19.37;;;;;8.00;95181.00;;;;8287021;28;20237;-70
2022/04/22 00:40:55;;;;;;;28.83;15.37;;;;;8.00;95176.00;;;;8285419;28;20333;-71
2022/04/22 00:44:58;;;;;;;33.33;18.30;;;;;7.90;95168.00;;;;8289867;28;20252;-71
2022/04/22 00:49:01;;;;;;;34.43;19.03;;;;;7.90;95166.00;;;;8288055;28;20240;-70
2022/04/22 00:53:05;;;;;;;41.83;20.67;;;;;7.90;95168.00;;;;8290516;28;20317;-71
2022/04/22 00:57:10;;;;;;;37.63;19.47;;;;;7.80;95161.00;;;;8285776;28;20235;-72
2022/04/22 01:01:14;;;;;;;35.50;19.13;;;;;7.80;95153.00;;;;8290972;28;20235;-72
2022/04/22 01:09:51;;;;;;;33.13;19.13;;;;;7.80;95143.00;;;;8290975;28;20239;-70
2022/04/22 01:13:56;;;;;;;36.47;19.90;;;;;7.70;95139.00;;;;8292803;28;20221;-72
2022/04/22 01:17:59;;;;;;;38.80;21.40;;;;;7.70;95126.00;;;;8287532;28;20583;-71
2022/04/22 01:22:05;;;;;;;32.07;18.37;;;;;7.70;95135.00;;;;8297839;28;20687;-71
2022/04/22 01:26:09;;;;;;;36.37;16.70;;;;;7.70;95133.00;;;;8290658;28;20234;-71
2022/04/22 01:30:12;;;;;;;30.83;16.77;;;;;7.70;95123.00;;;;8287480;28;20233;-71
2022/04/22 01:34:15;;;;;;;32.23;19.00;;;;;7.70;95119.00;;;;8291111;28;20237;-71
2022/04/22 01:38:20;;;;;;;38.20;19.63;;;;;7.70;95108.00;;;;8289960;28;20235;-70
2022/04/22 01:42:23;;;;;;;35.77;19.63;;;;;7.60;95106.00;;;;8291444;28;20239;-71
2022/04/22 01:46:27;;;;;;;36.03;18.10;;;;;7.60;95095.00;;;;8286220;28;20318;-71
2022/04/22 01:50:30;;;;;;;34.27;19.50;;;;;7.60;95082.00;;;;8284143;28;20236;-71
2022/04/22 01:54:35;;;;;;;35.90;19.20;;;;;7.60;95088.00;;;;8291265;28;20227;-71
2022/04/22 01:58:38;;;;;;;31.47;18.33;;;;;7.60;95072.00;;;;8288359;28;20271;-71
2022/04/22 02:02:41;;;;;;;37.23;21.70;;;;;7.60;95077.00;;;;8284196;28;20258;-72
2022/04/22 02:06:45;;;;;;;37.90;19.07;;;;;7.60;95068.00;;;;8277043;28;20251;-72
2022/04/22 02:10:50;;;;;;;34.00;17.97;;;;;7.60;95063.00;;;;8291755;28;20580;-70
2022/04/22 02:14:53;;;;;;;35.60;19.70;;;;;7.60;95072.00;;;;8288598;28;20635;-71
2022/04/22 02:18:57;;;;;;;33.33;16.97;;;;;7.50;95063.00;;;;8282351;28;20312;-71
2022/04/22 02:23:01;;;;;;;35.53;18.90;;;;;7.50;95058.00;;;;8283779;28;20230;-72
2022/04/22 02:31:28;;;;;;;36.53;19.93;;;;;7.50;95056.00;;;;8277011;28;20230;-72
2022/04/22 02:35:31;;;;;;;35.27;17.27;;;;;7.50;95054.00;;;;8284404;28;20844;-72
2022/04/22 02:39:34;;;;;;;32.93;17.23;;;;;7.50;95038.00;;;;8283196;28;20236;-72
2022/04/22 02:47:59;;;;;;;38.70;19.17;;;;;7.40;95036.00;;;;8286661;28;20318;-72
2022/04/22 02:52:02;;;;;;;33.47;17.10;;;;;7.40;95027.00;;;;8285301;28;20246;-72
2022/04/22 02:56:07;;;;;;;32.33;17.37;;;;;7.40;95028.00;;;;8285305;28;20251;-72
2022/04/22 03:00:13;;;;;;;33.80;17.27;;;;;7.40;95031.00;;;;8289526;28;20234;-73
2022/04/22 03:04:16;;;;;;;31.00;17.70;;;;;7.40;95020.00;;;;8374341;23;20234;-72
2022/04/22 03:08:20;;;;;;;37.17;17.93;;;;;7.40;95023.00;;;;8376506;28;20285;-72
2022/04/22 03:12:23;;;;;;;35.43;18.50;;;;;7.40;95015.00;;;;8375727;28;20925;-71
2022/04/22 03:16:28;;;;;;;31.07;16.90;;;;;7.30;95004.00;;;;8381186;28;20313;-73
2022/04/22 03:20:32;;;;;;;31.97;15.37;;;;;7.30;94992.00;;;;8373278;28;20270;-73
2022/04/22 03:24:35;;;;;;;30.27;15.77;;;;;7.30;94991.00;;;;8370117;28;20310;-72
2022/04/22 03:28:39;;;;;;;35.23;17.50;;;;;7.30;94999.00;;;;8381005;28;20236;-71
2022/04/22 03:32:43;;;;;;;34.40;16.77;;;;;7.30;95008.00;;;;8385158;28;20227;-71
2022/04/22 03:36:46;;;;;;;29.40;16.27;;;;;7.20;95001.00;;;;8382793;28;20717;-71
2022/04/22 03:40:51;;;;;;;32.13;17.53;;;;;7.20;94995.00;;;;8383226;28;20666;-71
2022/04/22 03:44:55;;;;;;;31.77;16.67;;;;;7.10;94992.00;;;;8392510;28;20232;-72
2022/04/22 03:49:00;;;;;;;33.43;18.00;;;;;7.10;94979.00;;;;8384827;28;20324;-73
2022/04/22 03:53:03;;;;;;;34.03;17.63;;;;;7.00;94981.00;;;;8384834;28;20233;-73
2022/04/22 04:01:27;;;;;;;33.87;17.97;;;;;7.00;94988.00;;;;8379308;28;20247;-72
2022/04/22 04:05:33;;;;;;;35.27;18.33;;;;;7.10;94981.00;;;;8395005;28;20263;-71
2022/04/22 04:18:13;;;;;;;31.70;16.77;;;;;7.10;94976.00;;;;8378877;28;20233;-73
2022/04/22 04:26:47;;;;;;;33.23;17.40;;;;;7.00;94969.00;;;;8344699;28;20984;-72
2022/04/22 04:30:50;;;;;;;34.73;17.53;;;;;7.00;94973.00;;;;8369008;28;20972;-71
2022/04/22 04:34:54;;;;;;;32.70;16.50;;;;;6.90;94967.00;;;;8381302;28;20235;-73
2022/04/22 04:38:58;;;;;;;32.87;16.70;;;;;6.90;94966.00;;;;8375145;28;20906;-72
2022/04/22 04:43:01;;;;;;;31.50;16.60;;;;;6.90;94969.00;;;;8385693;28;20240;-73
2022/04/22 04:47:05;;;;;;;32.60;17.63;;;;;7.00;94959.00;;;;8389198;28;20749;-73
2022/04/22 04:51:10;;;;;;;36.93;18.40;;;;;7.00;94968.00;;;;8384072;28;20242;-73
2022/04/22 04:55:15;;;;;;;29.87;16.20;;;;;7.10;94969.00;;;;8377199;28;20301;-72
2022/04/22 04:59:18;;;;;;;34.87;18.03;;;;;7.20;94967.00;;;;8379534;28;20269;-73
2022/04/22 05:03:21;;;;;;;30.63;15.40;;;;;7.20;94967.00;;;;8383317;28;20241;-73
2022/04/22 05:07:24;;;;;;;31.87;17.80;;;;;7.40;94955.00;;;;8387546;28;20236;-74
2022/04/22 05:11:29;;;;;;;33.53;18.67;;;;;7.40;94963.00;;;;8376656;28;20750;-73
2022/04/22 05:15:33;;;;;;;34.67;16.97;;;;;7.50;94959.00;;;;8381430;28;20257;-73
2022/04/22 05:19:36;;;;;;;34.23;18.20;;;;;7.70;94974.00;;;;8383783;28;20308;-71
2022/04/22 05:23:40;;;;;;;30.67;16.43;;;;;7.80;94956.00;;;;8375237;28;20245;-73
2022/04/22 05:27:44;;;;;;;33.43;17.17;;;;;7.80;94962.00;;;;8376935;28;20259;-71
2022/04/22 05:36:08;;;;;;;33.47;17.33;;;;;8.00;94966.00;;;;8376985;28;20226;-72
2022/04/22 05:40:13;;;;;;;28.03;15.17;;;;;8.10;94956.00;;;;8377973;28;20334;-70
2022/04/22 05:44:24;;;;;;;25.47;13.37;;;;;8.20;94969.00;;;;8374381;28;20330;-73
2022/04/22 05:48:28;;;;;;;32.20;17.73;;;;;8.20;94969.00;;;;8373419;28;20867;-69
2022/04/22 05:52:32;;;;;;;31.00;15.83;;;;;8.30;94956.00;;;;8374587;28;20721;-69
2022/04/22 05:56:36;;;;;;;35.90;16.67;;;;;8.40;94958.00;;;;8376001;28;20239;-70
2022/04/22 06:00:41;;;;;;;33.80;16.77;;;;;8.50;94950.00;;;;8377970;28;20219;-70
2022/04/22 06:04:44;;;;;;;26.53;15.20;;;;;8.60;94954.00;;;;8377918;28;20227;-69
2022/04/22 06:13:09;;;;;;;30.50;14.27;;;;;8.80;94948.00;;;;8367193;28;20310;-70
2022/04/22 06:17:14;;;;;;;22.33;11.77;;;;;8.90;94960.00;;;;8373253;28;20220;-70
2022/04/22 06:21:18;;;;;;;26.83;12.73;;;;;9.00;94950.00;;;;8377599;28;20881;-71
2022/04/22 06:25:21;;;;;;;32.17;17.20;;;;;9.10;94953.00;;;;8375595;28;20298;-69
2022/04/22 06:29:25;;;;;;;27.13;15.43;;;;;9.30;94959.00;;;;8378233;28;20228;-69
2022/04/22 06:33:30;;;;;;;27.77;14.73;;;;;9.50;94965.00;;;;8376884;28;20743;-70
2022/04/22 06:37:35;;;;;;;28.00;16.07;;;;;9.60;94968.00;;;;8373613;28;22358;-69
2022/04/22 06:46:00;;;;;;;27.07;14.20;;;;;10.10;94977.00;;;;8379513;28;20250;-69
2022/04/22 06:50:06;;;;;;;25.37;15.53;;;;;10.30;94974.00;;;;8377020;28;20823;-68
2022/04/22 06:54:10;;;;;;;26.77;14.20;;;;;10.60;94969.00;;;;8382495;28;20309;-68
2022/04/22 06:58:15;;;;;;;27.43;15.93;;;;;10.80;94962.00;;;;8379365;28;20220;-72
2022/04/22 07:02:19;;;;;;;23.03;12.17;;;;;10.90;94963.00;;;;8379782;28;20227;-72
2022/04/22 07:06:24;;;;;;;23.90;14.67;;;;;11.00;94962.00;;;;8380905;28;20220;-68
2022/04/22 07:10:28;;;;;;;26.93;12.63;;;;;11.10;94966.00;;;;8390726;28;20251;-69
2022/04/22 07:14:35;;;;;;;23.13;14.80;;;;;11.20;94961.00;;;;8387299;28;20326;-69
2022/04/22 07:18:40;;;;;;;27.03;15.17;;;;;11.70;94968.00;;;;8382094;28;20232;-71
2022/04/22 07:22:45;;;;;;;25.70;14.40;;;;;12.00;94965.00;;;;8381162;28;20258;-71
2022/04/22 07:26:48;;;;;;;24.10;14.43;;;;;12.60;94958.00;;;;8357871;28;20235;-71
2022/04/22 07:30:52;;;;;;;22.42;13.80;;;;;13.00;94955.00;;;;8384239;28;20592;-71
2022/04/22 07:34:56;;;;;;;30.83;13.90;;;;;13.20;94954.00;;;;8391461;28;20224;-67
2022/04/22 07:39:01;;;;;;;26.73;14.32;;;;;13.60;94950.00;;;;8384435;28;20224;-68
2022/04/22 07:47:26;;;;;;;20.08;12.18;;;;;14.00;94929.00;;;;8373725;28;20235;-68
2022/04/22 07:51:30;;;;;;;20.05;13.13;;;;;14.20;94931.00;;;;8365015;28;20776;-69
2022/04/22 07:55:34;;;;;;;21.88;13.18;;;;;14.60;94923.00;;;;8371054;28;20239;-69
2022/04/22 07:59:38;;;;;;;21.83;13.43;;;;;14.80;94926.00;;;;8356882;28;20231;-69
2022/04/22 08:03:42;;;;;;;18.50;12.77;;;;;15.10;94920.00;;;;8369223;28;20227;-69
2022/04/22 08:07:45;;;;;;;22.27;13.70;;;;;15.30;94932.00;;;;8379105;28;20222;-70
2022/04/22 08:11:52;;;;;;;20.63;12.75;;;;;15.50;94928.00;;;;8369014;28;20224;-73
2022/04/22 08:15:56;;;;;;;18.63;11.30;;;;;15.70;94929.00;;;;8368071;28;20226;-73
2022/04/22 08:19:59;;;;;;;23.30;13.60;;;;;15.80;94913.00;;;;8371895;28;20235;-74
2022/04/22 08:24:10;;;;;;;22.65;13.07;;;;;16.00;94912.00;;;;8372982;28;20291;-71
2022/04/22 08:28:15;;;;;;;20.15;12.43;;;;;16.30;94914.00;;;;8360751;28;20657;-74
2022/04/22 08:32:18;;;;;;;20.90;13.85;;;;;16.60;94893.00;;;;8372521;28;20313;-75
2022/04/22 08:36:22;;;;;;;20.13;13.10;;;;;16.70;94893.00;;;;8363475;28;21159;-76
2022/04/22 08:40:26;;;;;;;17.85;12.27;;;;;16.60;94903.00;;;;8359283;28;20309;-76
2022/04/22 08:44:31;;;;;;;18.42;12.05;;;;;16.80;94904.00;;;;8362018;28;20605;-77
2022/04/22 08:53:00;;;;;;;17.98;12.30;;;;;17.10;94898.00;;;;8362967;28;20234;-76
2022/04/22 08:57:06;;;;;;;17.13;11.30;;;;;16.90;94916.00;;;;8365354;28;20243;-76
2022/04/22 09:01:11;;;;;;;17.13;12.15;;;;;17.20;94892.00;;;;8360853;28;20343;-76
2022/04/22 09:05:14;;;;;;;21.58;12.52;;;;;17.80;94898.00;;;;8368642;28;20307;-76
2022/04/22 09:09:19;;;;;;;15.23;10.77;;;;;18.00;94896.00;;;;8365245;28;20315;-78
2022/04/22 09:13:26;;;;;;;16.30;10.90;;;;;18.20;94897.00;;;;8377317;28;20236;-74
2022/04/22 09:17:34;;;;;;;18.25;12.23;;;;;18.00;94887.00;;;;8367259;28;20222;-76
2022/04/22 09:21:38;;;;;;;17.33;11.63;;;;;18.00;94886.00;;;;8371329;28;20252;-76
2022/04/22 09:25:47;;;;;;;18.20;11.65;;;;;18.10;94886.00;;;;8349596;28;20232;-75
2022/04/22 09:29:55;;;;;;;19.50;12.88;;;;;18.10;94880.00;;;;8362343;28;20241;-76
2022/04/22 09:34:00;;;;;;;15.30;10.77;;;;;18.60;94875.00;;;;8366477;28;20227;-74
2022/04/22 09:42:39;;;;;;;18.80;11.13;;;;;19.10;94875.00;;;;8352421;28;20236;-75
2022/04/22 09:46:42;;;;;;;17.85;11.90;;;;;18.80;94884.00;;;;8371321;28;20220;-75
2022/04/22 09:51:21;;;;;;;17.08;11.52;;;;;19.40;94867.00;;;;8375379;28;20230;-76
2022/04/22 09:55:25;;;;;;;14.32;10.38;;;;;19.50;94872.00;;;;8365466;28;20241;-75
2022/04/22 09:59:30;;;;;;;13.77;9.95;;;;;19.80;94864.00;;;;8384492;28;20311;-74
2022/04/22 10:03:35;;;;;;;11.98;9.07;;;;;20.40;94876.00;;;;8369796;28;20230;-75
2022/04/22 10:07:42;;;;;;;17.58;10.75;;;;;20.60;94870.00;;;;8373810;28;20297;-75
2022/04/22 10:11:47;;;;;;;11.25;8.95;;;;;20.60;94866.00;;;;8373220;28;20238;-75
2022/04/22 10:15:51;;;;;;;10.63;9.02;;;;;21.00;94862.00;;;;8353381;28;20219;-75
2022/04/22 10:19:54;;;;;;;13.15;9.02;;;;;20.80;94861.00;;;;8357378;28;20232;-77
2022/04/22 10:23:59;;;;;;;16.60;10.75;;;;;20.50;94860.00;;;;8367182;28;20686;-75
2022/04/22 10:28:06;;;;;;;13.10;9.73;;;;;20.20;94867.00;;;;8358009;28;20232;-75
2022/04/22 10:32:12;;;;;;;15.02;10.00;;;;;20.40;94855.00;;;;8365306;28;20326;-72
2022/04/22 10:36:17;;;;;;;11.93;8.80;;;;;20.90;94842.00;;;;8358036;28;20224;-71
2022/04/22 10:40:23;;;;;;;11.65;9.02;;;;;21.30;94853.00;;;;8376439;28;20234;-76
2022/04/22 10:49:12;;;;;;;10.65;8.23;;;;;21.90;94842.00;;;;8371648;28;20223;-72
2022/04/22 10:53:25;;;;;;;15.90;11.45;;;;;21.90;94847.00;;;;8371618;28;20232;-73
2022/04/22 10:57:32;;;;;;;15.00;11.50;;;;;21.30;94846.00;;;;8370475;28;20577;-75
2022/04/22 11:01:40;;;;;;;12.98;8.70;;;;;21.10;94841.00;;;;8376277;28;22742;-76
2022/04/22 11:05:47;;;;;;;15.77;10.35;;;;;21.00;94853.00;;;;8378600;28;20240;-73
2022/04/22 11:10:02;;;;;;;13.13;8.32;;;;;21.40;94846.00;;;;8382231;28;20370;-72
2022/04/22 11:14:20;;;;;;;11.10;7.63;;;;;21.60;94852.00;;;;8364818;28;20650;-77
2022/04/22 11:18:24;;;;;;;10.48;7.78;;;;;21.90;94848.00;;;;8363487;28;20226;-76
2022/04/22 11:22:53;;;;;;;12.70;7.65;;;;;21.50;94845.00;;;;8371668;28;20896;-75
2022/04/22 11:27:10;;;;;;;9.00;7.20;;;;;21.10;94865.00;;;;8377782;28;20316;-76
2022/04/22 11:31:16;;;;;;;8.30;6.70;;;;;21.40;94856.00;;;;8359655;28;20236;-76
2022/04/22 11:35:22;;;;;;;10.77;7.35;;;;;21.90;94843.00;;;;8367413;28;20239;-76
2022/04/22 11:39:26;;;;;;;8.63;6.93;;;;;22.60;94847.00;;;;8375616;28;20748;-76
2022/04/22 11:43:30;;;;;;;9.27;7.65;;;;;22.60;94849.00;;;;8375820;28;20224;-76
2022/04/22 11:47:35;;;;;;;11.45;8.05;;;;;22.20;94850.00;;;;8381573;28;20233;-76
2022/04/22 11:51:39;;;;;;;12.65;7.88;;;;;21.40;94845.00;;;;8364124;28;20733;-77
2022/04/22 11:55:45;;;;;;;10.07;6.78;;;;;21.20;94852.00;;;;8379874;28;20227;-77
2022/04/22 12:05:32;;;;;;;19.30;7.78;;;;;20.60;94856.00;;;;8375762;28;20767;-75
2022/04/22 12:08:35;;;;;;;12.48;7.28;;;;;19.80;94865.00;;;;8376568;28;20234;-76
2022/04/22 12:12:48;;;;;;;9.18;6.97;;;;;19.60;94857.00;;;;8376363;28;20354;-76
2022/04/22 12:16:57;;;;;;;12.50;7.90;;;;;19.60;94856.00;;;;8371744;28;20250;-76
2022/04/22 12:21:03;;;;;;;13.18;7.95;;;;;19.60;94853.00;;;;8375000;28;20224;-76
2022/04/22 12:25:07;;;;;;;10.40;8.23;;;;;19.40;94853.00;;;;8379581;28;20224;-77
2022/04/22 12:29:11;;;;;;;8.98;6.93;;;;;19.30;94853.00;;;;8378456;28;20262;-76
2022/04/22 12:33:19;;;;;;;13.00;8.02;;;;;19.20;94852.00;;;;8382946;28;20747;-79
2022/04/22 12:37:24;;;;;;;9.85;7.30;;;;;19.10;94853.00;;;;8382312;28;20238;-75
2022/04/22 12:41:27;;;;;;;11.40;7.28;;;;;19.10;94847.00;;;;8380459;28;20316;-78
2022/04/22 12:54:34;;;;;;;11.00;7.65;;;;;19.40;94842.00;;;;8371376;28;20322;-73
2022/04/22 12:58:53;;;;;;;10.23;6.90;;;;;19.60;94850.00;;;;8378122;28;20234;-73
2022/04/22 13:03:03;;;;;;;10.18;7.32;;;;;19.70;94852.00;;;;8378484;28;20791;-72
2022/04/22 13:07:11;;;;;;;11.75;7.50;;;;;19.70;94847.00;;;;8379427;28;20235;-73
2022/04/22 13:11:16;;;;;;;10.63;7.90;;;;;20.20;94848.00;;;;8376897;28;20219;-73
2022/04/22 13:15:20;;;;;;;12.68;8.45;;;;;20.50;94859.00;;;;8376900;28;20745;-73
2022/04/22 13:19:24;;;;;;;13.38;9.25;;;;;20.60;94846.00;;;;8379080;28;20227;-73
2022/04/22 13:23:27;;;;;;;14.77;8.65;;;;;21.00;94844.00;;;;8375319;28;20302;-73
2022/04/22 13:27:32;;;;;;;11.07;8.13;;;;;21.00;94844.00;;;;8380232;28;20238;-73
2022/04/22 13:31:35;;;;;;;14.32;9.40;;;;;21.20;94857.00;;;;8378089;28;20227;-74
2022/04/22 13:35:39;;;;;;;11.50;8.95;;;;;20.70;94858.00;;;;8376785;28;20703;-76
2022/04/22 13:39:42;;;;;;;12.10;8.95;;;;;20.40;94861.00;;;;8377551;28;20628;-77
2022/04/22 13:43:47;;;;;;;41.42;10.40;;;;;20.30;94869.00;;;;8377683;28;20235;-76
2022/04/22 13:52:25;;;;;;;11.27;8.85;;;;;20.10;94858.00;;;;8377489;28;20251;-76
2022/04/22 13:56:29;;;;;;;15.65;8.52;;;;;20.10;94871.00;;;;8378576;28;20238;-76
2022/04/22 14:00:35;;;;;;;10.25;8.05;;;;;20.10;94870.00;;;;8380760;28;20306;-77
2022/04/22 14:04:38;;;;;;;11.52;9.35;;;;;19.90;94858.00;;;;8379879;28;20235;-75
2022/04/22 14:08:42;;;;;;;15.68;9.38;;;;;19.70;94870.00;;;;8383673;28;20230;-75
2022/04/22 14:12:46;;;;;;;16.70;9.27;;;;;19.30;94870.00;;;;8385503;28;20235;-75
2022/04/22 14:16:51;;;;;;;11.98;9.20;;;;;19.30;94871.00;;;;8386872;28;20219;-74
2022/04/22 14:20:54;;;;;;;10.45;8.57;;;;;19.60;94878.00;;;;8402975;28;20314;-77
2022/04/22 14:24:58;;;;;;;92.05;13.55;;;;;19.30;94887.00;;;;8393493;28;20780;-76
2022/04/22 14:29:01;;;;;;;10.85;8.38;;;;;19.00;94895.00;;;;8382225;28;20724;-75
2022/04/22 14:33:06;;;;;;;14.48;9.93;;;;;19.10;94896.00;;;;8379620;28;20231;-74
2022/04/22 14:37:09;;;;;;;14.98;9.32;;;;;19.40;94899.00;;;;8372677;28;20307;-74
2022/04/22 14:41:13;;;;;;;18.52;10.85;;;;;19.30;94897.00;;;;8381186;28;20236;-77
2022/04/22 14:45:16;;;;;;;13.13;10.50;;;;;19.40;94908.00;;;;8412147;28;20351;-75
2022/04/22 14:49:27;;;;;;;16.52;10.65;;;;;19.40;94908.00;;;;8382227;28;20333;-76
2022/04/22 14:53:30;;;;;;;17.45;10.82;;;;;19.20;94916.00;;;;8390311;28;20338;-74
2022/04/22 14:57:33;;;;;;;16.30;10.82;;;;;18.90;94915.00;;;;8382332;28;20310;-74
2022/04/22 15:01:37;;;;;;;15.38;10.98;;;;;18.60;94918.00;;;;8407480;28;20227;-75
2022/04/22 15:05:41;;;;;;;16.25;10.98;;;;;18.60;94930.00;;;;8385843;28;20227;-80
2022/04/22 15:09:45;;;;;;;18.52;11.77;;;;;18.60;94929.00;;;;8382395;28;20600;-75
2022/04/22 15:13:48;;;;;;;15.00;10.77;;;;;18.60;94942.00;;;;8384698;28;20231;-74
2022/04/22 15:26:36;;;;;;;14.73;9.77;;;;;17.90;94946.00;;;;8356214;28;20676;-73
2022/04/22 15:31:13;;;;;;;16.48;11.23;;;;;17.90;94948.00;;;;8382904;28;20699;-74
2022/04/22 15:35:17;;;;;;;15.75;10.90;;;;;18.00;94951.00;;;;8381251;28;20309;-74
2022/04/22 15:39:22;;;;;;;16.73;10.90;;;;;18.20;94938.00;;;;8388061;28;20651;-73
2022/04/22 15:43:25;;;;;;;14.70;10.85;;;;;18.10;94948.00;;;;8387361;28;20243;-74
2022/04/22 15:47:28;;;;;;;15.15;11.30;;;;;18.00;94955.00;;;;8395134;28;20337;-74
2022/04/22 15:51:32;;;;;;;14.57;10.35;;;;;17.80;94956.00;;;;8390804;28;20234;-74
2022/04/22 15:55:36;;;;;;;26.73;12.25;;;;;17.60;94959.00;;;;8380086;28;20323;-72
2022/04/22 15:59:39;;;;;;;17.67;11.13;;;;;17.50;94957.00;;;;8390853;28;20230;-72
2022/04/22 16:03:48;;;;;;;15.43;11.73;;;;;17.50;94959.00;;;;8384027;28;20243;-72
2022/04/22 16:07:52;;;;;;;15.20;11.30;;;;;17.60;94959.00;;;;8398715;28;20735;-73
2022/04/22 16:16:19;;;;;;;14.50;10.55;;;;;17.70;94966.00;;;;8360361;28;20219;-73
2022/04/22 16:20:23;;;;;;;21.02;12.52;;;;;17.70;94965.00;;;;8376015;28;20225;-73
2022/04/22 16:24:27;;;;;;;15.07;10.15;;;;;17.70;94975.00;;;;8376702;28;20228;-74
2022/04/22 16:28:31;;;;;;;16.77;10.60;;;;;17.40;94966.00;;;;8389989;28;20223;-74
2022/04/22 16:32:35;;;;;;;14.50;10.95;;;;;17.20;94965.00;;;;8382735;28;20216;-73
2022/04/22 16:36:38;;;;;;;13.65;10.45;;;;;17.30;94967.00;;;;8383098;28;20224;-73
2022/04/22 16:40:41;;;;;;;13.45;9.88;;;;;17.80;94966.00;;;;8377062;28;20236;-75
2022/04/22 16:44:46;;;;;;;16.45;10.13;;;;;18.10;94969.00;;;;8379146;28;20344;-73
2022/04/22 16:48:49;;;;;;;15.55;10.52;;;;;18.00;94976.00;;;;8381623;28;20299;-74
2022/04/22 16:52:52;;;;;;;16.45;10.52;;;;;17.70;94976.00;;;;8377237;28;20216;-73
2022/04/22 16:56:58;;;;;;;16.95;11.10;;;;;17.70;94982.00;;;;8383474;28;20318;-73
2022/04/22 17:01:03;;;;;;;17.48;10.70;;;;;17.60;94984.00;;;;8388702;28;20240;-74
2022/04/22 17:05:08;;;;;;;18.38;10.45;;;;;17.30;94992.00;;;;8383947;28;20346;-72
2022/04/22 17:09:11;;;;;;;13.52;10.05;;;;;17.20;94999.00;;;;8376796;28;20311;-73
2022/04/22 17:13:15;;;;;;;15.23;10.23;;;;;16.90;94995.00;;;;8366999;28;20683;-74
2022/04/22 17:26:15;;;;;;;20.42;11.00;;;;;16.10;95005.00;;;;8239267;28;20234;-73
2022/04/22 17:30:19;;;;;;;16.50;10.65;;;;;15.80;95004.00;;;;8318262;28;20596;-73
2022/04/22 17:34:24;;;;;;;15.55;10.98;;;;;15.50;95003.00;;;;8380173;28;20230;-74
2022/04/22 17:38:27;;;;;;;14.43;10.60;;;;;15.40;95013.00;;;;8378308;28;20326;-75
2022/04/22 17:42:30;;;;;;;17.90;11.55;;;;;15.20;95019.00;;;;8383067;28;20318;-75
2022/04/22 17:46:34;;;;;;;14.15;9.63;;;;;14.90;95027.00;;;;8378078;28;20322;-74
2022/04/22 17:50:39;;;;;;;15.38;11.23;;;;;14.60;95020.00;;;;8376109;28;20314;-74
2022/04/22 17:54:42;;;;;;;13.82;10.07;;;;;14.50;95023.00;;;;8382118;28;20245;-75
2022/04/22 17:58:45;;;;;;;18.02;11.55;;;;;14.20;95023.00;;;;8384322;28;20223;-76
2022/04/22 18:02:48;;;;;;;19.10;8.90;;;;;14.00;95031.00;;;;8403095;28;20245;-75
2022/04/22 18:06:53;;;;;;;15.40;10.73;;;;;13.80;95043.00;;;;8384708;28;20248;-74
2022/04/22 18:10:56;;;;;;;15.02;9.70;;;;;13.60;95032.00;;;;8382675;28;20639;-74
2022/04/22 18:19:21;;;;;;;13.40;9.27;;;;;13.30;95050.00;;;;8377929;28;20222;-72
2022/04/22 18:23:26;;;;;;;12.82;9.75;;;;;13.10;95051.00;;;;8378198;28;20234;-74
2022/04/22 18:27:29;;;;;;;12.15;8.93;;;;;12.90;95055.00;;;;8370479;28;20308;-72
2022/04/22 18:31:33;;;;;;;16.25;9.95;;;;;12.80;95063.00;;;;8370776;28;20229;-76
2022/04/22 18:35:38;;;;;;;12.68;9.30;;;;;12.70;95058.00;;;;8365661;28;20251;-75
2022/04/22 18:39:44;;;;;;;16.88;9.95;;;;;12.60;95078.00;;;;8370054;28;20239;-73
2022/04/22 18:43:47;;;;;;;13.55;9.75;;;;;12.60;95069.00;;;;8360506;28;20772;-75
2022/04/22 18:47:53;;;;;;;12.73;9.80;;;;;12.50;95065.00;;;;8381627;28;20233;-73
2022/04/22 18:51:57;;;;;;;11.20;8.85;;;;;12.50;95079.00;;;;8368969;28;20302;-72
2022/04/22 18:56:01;;;;;;;12.10;9.00;;;;;12.50;95082.00;;;;8367172;28;20227;-73
2022/04/22 19:00:06;;;;;;;12.52;9.38;;;;;12.50;95077.00;;;;8363357;28;20315;-71
2022/04/22 19:04:09;;;;;;;11.00;8.85;;;;;12.50;95085.00;;;;8378677;28;20725;-75
2022/04/22 19:08:14;;;;;;;12.93;9.85;;;;;12.40;95090.00;;;;8389280;28;20335;-71
2022/04/22 19:12:19;;;;;;;9.98;8.50;;;;;12.40;95103.00;;;;8377485;28;20225;-73
2022/04/22 19:16:22;;;;;;;10.77;8.50;;;;;12.40;95104.00;;;;8371326;28;20235;-73
2022/04/22 19:20:26;;;;;;;13.05;9.10;;;;;12.40;95106.00;;;;8368031;28;20240;-71
2022/04/22 19:24:29;;;;;;;11.27;8.85;;;;;12.40;95107.00;;;;8367155;28;20234;-70
2022/04/22 19:28:34;;;;;;;9.95;7.72;;;;;12.40;95109.00;;;;8365513;28;20253;-74
2022/04/22 19:32:37;;;;;;;11.40;8.13;;;;;12.40;95106.00;;;;8378974;28;20314;-71
2022/04/22 19:41:01;;;;;;;10.13;8.23;;;;;12.30;95113.00;;;;8380425;28;20597;-72
2022/04/22 19:45:07;;;;;;;10.45;7.82;;;;;12.30;95101.00;;;;8374905;28;20783;-72
2022/04/22 19:49:10;;;;;;;11.40;7.43;;;;;12.30;95107.00;;;;8378872;28;20277;-70
2022/04/22 19:53:15;;;;;;;11.32;8.02;;;;;12.20;95107.00;;;;8370597;28;20302;-72
2022/04/22 19:57:18;;;;;;;9.60;7.70;;;;;12.20;95119.00;;;;8364543;28;20324;-71
2022/04/22 20:01:22;;;;;;;11.50;8.38;;;;;12.20;95115.00;;;;8365063;28;20313;-72
2022/04/22 20:05:28;;;;;;;8.40;6.47;;;;;12.20;95123.00;;;;8378511;28;20286;-72
2022/04/22 20:09:31;;;;;;;8.40;7.13;;;;;12.10;95138.00;;;;8377833;28;20571;-76
2022/04/22 20:13:35;;;;;;;9.90;7.22;;;;;12.00;95137.00;;;;8370633;28;20221;-71
2022/04/22 20:17:40;;;;;;;11.95;7.82;;;;;12.00;95131.00;;;;8373550;28;20240;-71
2022/04/22 20:21:43;;;;;;;9.35;6.72;;;;;11.90;95136.00;;;;8373189;28;20218;-74
2022/04/22 20:25:46;;;;;;;8.10;6.50;;;;;11.90;95151.00;;;;8367482;28;20702;-72
2022/04/22 20:29:50;;;;;;;8.68;7.05;;;;;11.80;95152.00;;;;8377314;28;20690;-72
2022/04/22 20:33:54;;;;;;;10.45;7.10;;;;;11.80;95140.00;;;;8363853;28;21167;-72
2022/04/22 20:42:18;;;;;;;7.67;6.83;;;;;11.80;95159.00;;;;8370774;28;20225;-74
2022/04/22 20:46:25;;;;;;;7.40;6.60;;;;;11.70;95172.00;;;;8367939;28;20215;-74
2022/04/22 20:50:33;;;;;;;6.75;5.80;;;;;11.70;95172.00;;;;8382893;28;21024;-73
2022/04/22 20:54:36;;;;;;;7.30;5.97;;;;;11.60;95166.00;;;;8367644;28;20268;-73
2022/04/22 20:58:40;;;;;;;7.45;5.88;;;;;11.60;95161.00;;;;8373102;28;20261;-74
2022/04/22 21:02:43;;;;;;;7.20;5.95;;;;;11.60;95173.00;;;;8371967;28;20228;-73
2022/04/22 21:06:48;;;;;;;8.75;6.78;;;;;11.60;95162.00;;;;8369331;28;20245;-75
2022/04/22 21:10:52;;;;;;;6.78;5.97;;;;;11.60;95172.00;;;;8377936;28;20224;-74
2022/04/22 21:14:55;;;;;;;9.30;6.50;;;;;11.50;95165.00;;;;8375182;28;20310;-74
2022/04/22 21:18:58;;;;;;;7.17;6.00;;;;;11.60;95173.00;;;;8372784;28;20226;-75
2022/04/22 21:23:03;;;;;;;6.97;5.97;;;;;11.60;95169.00;;;;8371779;28;20224;-73
2022/04/22 21:27:06;;;;;;;5.70;5.18;;;;;11.50;95172.00;;;;8374345;28;20719;-74
2022/04/22 21:31:09;;;;;;;7.87;6.00;;;;;11.50;95177.00;;;;8380006;28;20319;-74
2022/04/22 21:35:13;;;;;;;6.13;5.53;;;;;11.50;95181.00;;;;8377547;28;20225;-74
2022/04/22 21:39:18;;;;;;;6.22;5.43;;;;;11.50;95181.00;;;;8370971;28;20230;-74
2022/04/22 21:43:21;;;;;;;7.15;5.28;;;;;11.50;95172.00;;;;8359609;28;20251;-74
2022/04/22 21:47:24;;;;;;;6.60;5.27;;;;;11.50;95173.00;;;;8382561;28;20249;-73
2022/04/22 21:51:27;;;;;;;6.90;5.67;;;;;11.50;95183.00;;;;8373781;28;20232;-73
2022/04/22 21:55:32;;;;;;;5.57;4.87;;;;;11.40;95173.00;;;;8371505;28;20900;-73
2022/04/22 21:59:35;;;;;;;5.82;5.22;;;;;11.40;95182.00;;;;8370836;28;20228;-75